sensor_id;sensor_type;location;lat;lon;timestamp;P1;durP1;ratioP1;P2;durP2;ratioP2
69381;SDS011;56560;50.692;12.844;2023-05-07T00:01:48;26.33;;;12.53;;
69381;SDS011;56560;50.692;12.844;2023-05-07T00:04:14;28.83;;;13.07;;
69381;SDS011;56560;50.692;12.844;2023-05-07T00:06:39;29.17;;;13.17;;
69381;SDS011;56560;50.692;12.844;2023-05-07T00:09:05;30.48;;;13.73;;
69381;SDS011;56560;50.692;12.844;2023-05-07T00:11:32;25.23;;;11.93;;
69381;SDS011;56560;50.692;12.844;2023-05-07T00:13:58;26.10;;;12.13;;
69381;SDS011;56560;50.692;12.844;2023-05-07T00:16:24;28.05;;;12.65;;
69381;SDS011;56560;50.692;12.844;2023-05-07T00:18:50;30.42;;;12.57;;
69381;SDS011;56560;50.692;12.844;2023-05-07T00:21:16;31.23;;;11.87;;
69381;SDS011;56560;50.692;12.844;2023-05-07T00:23:41;30.60;;;12.77;;
69381;SDS011;56560;50.692;12.844;2023-05-07T00:26:07;28.80;;;12.98;;
69381;SDS011;56560;50.692;12.844;2023-05-07T00:28:33;31.30;;;12.93;;
69381;SDS011;56560;50.692;12.844;2023-05-07T00:30:58;30.15;;;12.48;;
69381;SDS011;56560;50.692;12.844;2023-05-07T00:33:26;28.07;;;12.10;;
69381;SDS011;56560;50.692;12.844;2023-05-07T00:35:55;30.27;;;12.20;;
69381;SDS011;56560;50.692;12.844;2023-05-07T00:38:21;31.20;;;13.10;;
69381;SDS011;56560;50.692;12.844;2023-05-07T00:40:46;30.05;;;13.27;;
69381;SDS011;56560;50.692;12.844;2023-05-07T00:43:12;31.50;;;13.03;;
69381;SDS011;56560;50.692;12.844;2023-05-07T00:45:38;28.80;;;12.43;;
69381;SDS011;56560;50.692;12.844;2023-05-07T00:48:03;29.73;;;13.27;;
69381;SDS011;56560;50.692;12.844;2023-05-07T00:50:30;30.52;;;13.00;;
69381;SDS011;56560;50.692;12.844;2023-05-07T00:52:57;30.20;;;12.68;;
69381;SDS011;56560;50.692;12.844;2023-05-07T00:55:24;30.13;;;13.00;;
69381;SDS011;56560;50.692;12.844;2023-05-07T00:57:50;32.40;;;13.03;;
69381;SDS011;56560;50.692;12.844;2023-05-07T01:00:16;31.92;;;13.30;;
69381;SDS011;56560;50.692;12.844;2023-05-07T01:02:42;29.35;;;13.48;;
69381;SDS011;56560;50.692;12.844;2023-05-07T01:05:09;29.90;;;12.77;;
69381;SDS011;56560;50.692;12.844;2023-05-07T01:07:37;29.23;;;12.52;;
69381;SDS011;56560;50.692;12.844;2023-05-07T01:10:05;31.40;;;12.93;;
69381;SDS011;56560;50.692;12.844;2023-05-07T01:12:32;32.42;;;13.23;;
69381;SDS011;56560;50.692;12.844;2023-05-07T01:14:59;31.73;;;13.98;;
69381;SDS011;56560;50.692;12.844;2023-05-07T01:17:25;30.58;;;13.77;;
69381;SDS011;56560;50.692;12.844;2023-05-07T01:19:51;30.98;;;12.68;;
69381;SDS011;56560;50.692;12.844;2023-05-07T01:22:39;30.05;;;12.80;;
69381;SDS011;56560;50.692;12.844;2023-05-07T01:25:05;31.08;;;13.20;;
69381;SDS011;56560;50.692;12.844;2023-05-07T01:27:32;31.55;;;13.93;;
69381;SDS011;56560;50.692;12.844;2023-05-07T01:30:02;30.33;;;13.40;;
69381;SDS011;56560;50.692;12.844;2023-05-07T01:33:11;31.38;;;13.32;;
69381;SDS011;56560;50.692;12.844;2023-05-07T01:35:23;29.55;;;13.65;;
69381;SDS011;56560;50.692;12.844;2023-05-07T01:37:52;30.75;;;13.10;;
69381;SDS011;56560;50.692;12.844;2023-05-07T01:40:19;28.52;;;12.57;;
69381;SDS011;56560;50.692;12.844;2023-05-07T01:42:45;32.25;;;13.45;;
69381;SDS011;56560;50.692;12.844;2023-05-07T01:45:13;31.42;;;13.65;;
69381;SDS011;56560;50.692;12.844;2023-05-07T01:47:39;34.08;;;13.75;;
69381;SDS011;56560;50.692;12.844;2023-05-07T01:50:05;34.22;;;13.80;;
69381;SDS011;56560;50.692;12.844;2023-05-07T01:52:32;31.02;;;12.73;;
69381;SDS011;56560;50.692;12.844;2023-05-07T01:54:59;30.00;;;13.20;;
69381;SDS011;56560;50.692;12.844;2023-05-07T01:57:25;30.02;;;13.00;;
69381;SDS011;56560;50.692;12.844;2023-05-07T01:59:50;28.95;;;12.60;;
69381;SDS011;56560;50.692;12.844;2023-05-07T02:02:16;29.63;;;12.90;;
69381;SDS011;56560;50.692;12.844;2023-05-07T02:04:42;32.72;;;13.18;;
69381;SDS011;56560;50.692;12.844;2023-05-07T02:07:07;27.73;;;12.40;;
69381;SDS011;56560;50.692;12.844;2023-05-07T02:09:33;29.42;;;13.32;;
69381;SDS011;56560;50.692;12.844;2023-05-07T02:11:58;28.63;;;12.30;;
69381;SDS011;56560;50.692;12.844;2023-05-07T02:14:24;28.88;;;12.77;;
69381;SDS011;56560;50.692;12.844;2023-05-07T02:16:51;31.02;;;13.02;;
69381;SDS011;56560;50.692;12.844;2023-05-07T02:19:16;29.15;;;12.05;;
69381;SDS011;56560;50.692;12.844;2023-05-07T02:21:43;30.13;;;12.98;;
69381;SDS011;56560;50.692;12.844;2023-05-07T02:24:08;31.47;;;13.60;;
69381;SDS011;56560;50.692;12.844;2023-05-07T02:26:34;29.85;;;12.82;;
69381;SDS011;56560;50.692;12.844;2023-05-07T02:29:00;28.92;;;12.20;;
69381;SDS011;56560;50.692;12.844;2023-05-07T02:31:25;30.15;;;12.52;;
69381;SDS011;56560;50.692;12.844;2023-05-07T02:33:51;29.33;;;12.50;;
69381;SDS011;56560;50.692;12.844;2023-05-07T02:36:16;31.53;;;13.40;;
69381;SDS011;56560;50.692;12.844;2023-05-07T02:38:42;33.25;;;13.80;;
69381;SDS011;56560;50.692;12.844;2023-05-07T02:41:08;31.73;;;13.10;;
69381;SDS011;56560;50.692;12.844;2023-05-07T02:43:33;28.33;;;12.98;;
69381;SDS011;56560;50.692;12.844;2023-05-07T02:48:28;28.73;;;12.27;;
69381;SDS011;56560;50.692;12.844;2023-05-07T02:50:53;28.97;;;10.67;;
69381;SDS011;56560;50.692;12.844;2023-05-07T02:53:19;24.80;;;10.75;;
69381;SDS011;56560;50.692;12.844;2023-05-07T02:55:45;28.13;;;11.03;;
69381;SDS011;56560;50.692;12.844;2023-05-07T02:58:10;29.42;;;10.55;;
69381;SDS011;56560;50.692;12.844;2023-05-07T03:00:36;27.07;;;11.00;;
69381;SDS011;56560;50.692;12.844;2023-05-07T03:03:02;24.52;;;9.75;;
69381;SDS011;56560;50.692;12.844;2023-05-07T03:05:27;25.50;;;10.10;;
69381;SDS011;56560;50.692;12.844;2023-05-07T03:07:53;23.83;;;9.50;;
69381;SDS011;56560;50.692;12.844;2023-05-07T03:10:19;24.58;;;10.00;;
69381;SDS011;56560;50.692;12.844;2023-05-07T03:12:44;24.77;;;10.47;;
69381;SDS011;56560;50.692;12.844;2023-05-07T03:15:10;25.40;;;10.80;;
69381;SDS011;56560;50.692;12.844;2023-05-07T03:17:37;25.20;;;11.10;;
69381;SDS011;56560;50.692;12.844;2023-05-07T03:20:03;27.97;;;10.73;;
69381;SDS011;56560;50.692;12.844;2023-05-07T03:22:29;24.38;;;10.23;;
69381;SDS011;56560;50.692;12.844;2023-05-07T03:24:55;27.15;;;11.00;;
69381;SDS011;56560;50.692;12.844;2023-05-07T03:27:20;25.60;;;10.90;;
69381;SDS011;56560;50.692;12.844;2023-05-07T03:29:46;26.17;;;11.00;;
69381;SDS011;56560;50.692;12.844;2023-05-07T03:32:12;26.15;;;11.02;;
69381;SDS011;56560;50.692;12.844;2023-05-07T03:34:37;25.30;;;10.67;;
69381;SDS011;56560;50.692;12.844;2023-05-07T03:37:03;24.13;;;10.30;;
69381;SDS011;56560;50.692;12.844;2023-05-07T03:39:28;24.17;;;9.80;;
69381;SDS011;56560;50.692;12.844;2023-05-07T03:41:55;25.48;;;10.98;;
69381;SDS011;56560;50.692;12.844;2023-05-07T03:44:20;25.20;;;10.47;;
69381;SDS011;56560;50.692;12.844;2023-05-07T03:46:46;25.88;;;10.40;;
69381;SDS011;56560;50.692;12.844;2023-05-07T03:49:12;29.60;;;11.27;;
69381;SDS011;56560;50.692;12.844;2023-05-07T03:51:37;26.45;;;10.82;;
69381;SDS011;56560;50.692;12.844;2023-05-07T03:54:03;25.43;;;10.33;;
69381;SDS011;56560;50.692;12.844;2023-05-07T03:56:29;24.88;;;10.30;;
69381;SDS011;56560;50.692;12.844;2023-05-07T03:58:56;24.67;;;10.38;;
69381;SDS011;56560;50.692;12.844;2023-05-07T04:01:21;26.17;;;10.33;;
69381;SDS011;56560;50.692;12.844;2023-05-07T04:03:47;24.60;;;10.03;;
69381;SDS011;56560;50.692;12.844;2023-05-07T04:06:15;23.65;;;9.82;;
69381;SDS011;56560;50.692;12.844;2023-05-07T04:08:42;26.92;;;9.70;;
69381;SDS011;56560;50.692;12.844;2023-05-07T04:11:08;24.67;;;10.30;;
69381;SDS011;56560;50.692;12.844;2023-05-07T04:13:33;30.00;;;11.10;;
69381;SDS011;56560;50.692;12.844;2023-05-07T04:16:00;23.77;;;9.80;;
69381;SDS011;56560;50.692;12.844;2023-05-07T04:18:27;24.20;;;10.00;;
69381;SDS011;56560;50.692;12.844;2023-05-07T04:20:53;24.67;;;10.60;;
69381;SDS011;56560;50.692;12.844;2023-05-07T04:23:19;23.20;;;9.87;;
69381;SDS011;56560;50.692;12.844;2023-05-07T04:25:44;23.98;;;9.60;;
69381;SDS011;56560;50.692;12.844;2023-05-07T04:28:10;22.90;;;9.60;;
69381;SDS011;56560;50.692;12.844;2023-05-07T04:30:37;25.02;;;10.40;;
69381;SDS011;56560;50.692;12.844;2023-05-07T04:33:03;26.35;;;11.07;;
69381;SDS011;56560;50.692;12.844;2023-05-07T04:35:29;24.70;;;9.70;;
69381;SDS011;56560;50.692;12.844;2023-05-07T04:37:54;24.05;;;9.77;;
69381;SDS011;56560;50.692;12.844;2023-05-07T04:40:20;23.33;;;10.27;;
69381;SDS011;56560;50.692;12.844;2023-05-07T04:42:46;23.97;;;10.03;;
69381;SDS011;56560;50.692;12.844;2023-05-07T04:45:11;24.83;;;9.75;;
69381;SDS011;56560;50.692;12.844;2023-05-07T04:47:37;22.60;;;9.82;;
69381;SDS011;56560;50.692;12.844;2023-05-07T04:50:04;23.23;;;9.40;;
69381;SDS011;56560;50.692;12.844;2023-05-07T04:52:31;21.45;;;8.25;;
69381;SDS011;56560;50.692;12.844;2023-05-07T04:54:58;21.67;;;9.40;;
69381;SDS011;56560;50.692;12.844;2023-05-07T04:57:24;21.42;;;9.05;;
69381;SDS011;56560;50.692;12.844;2023-05-07T04:59:51;23.88;;;9.55;;
69381;SDS011;56560;50.692;12.844;2023-05-07T05:02:17;20.85;;;9.23;;
69381;SDS011;56560;50.692;12.844;2023-05-07T05:04:42;20.53;;;8.60;;
69381;SDS011;56560;50.692;12.844;2023-05-07T05:07:08;21.27;;;8.75;;
69381;SDS011;56560;50.692;12.844;2023-05-07T05:09:34;21.00;;;8.97;;
69381;SDS011;56560;50.692;12.844;2023-05-07T05:11:59;19.40;;;8.13;;
69381;SDS011;56560;50.692;12.844;2023-05-07T05:14:25;19.27;;;8.20;;
69381;SDS011;56560;50.692;12.844;2023-05-07T05:16:50;19.90;;;8.67;;
69381;SDS011;56560;50.692;12.844;2023-05-07T05:19:16;21.17;;;8.68;;
69381;SDS011;56560;50.692;12.844;2023-05-07T05:21:42;22.13;;;8.80;;
69381;SDS011;56560;50.692;12.844;2023-05-07T05:24:07;19.73;;;8.20;;
69381;SDS011;56560;50.692;12.844;2023-05-07T05:26:34;21.00;;;8.47;;
69381;SDS011;56560;50.692;12.844;2023-05-07T05:29:00;19.10;;;8.40;;
69381;SDS011;56560;50.692;12.844;2023-05-07T05:31:25;18.10;;;7.50;;
69381;SDS011;56560;50.692;12.844;2023-05-07T05:33:51;18.80;;;7.77;;
69381;SDS011;56560;50.692;12.844;2023-05-07T05:36:16;19.83;;;8.20;;
69381;SDS011;56560;50.692;12.844;2023-05-07T05:38:42;18.92;;;7.80;;
69381;SDS011;56560;50.692;12.844;2023-05-07T05:41:09;18.80;;;7.72;;
69381;SDS011;56560;50.692;12.844;2023-05-07T05:43:35;18.57;;;7.93;;
69381;SDS011;56560;50.692;12.844;2023-05-07T05:46:00;17.27;;;7.63;;
69381;SDS011;56560;50.692;12.844;2023-05-07T05:48:26;18.00;;;7.33;;
69381;SDS011;56560;50.692;12.844;2023-05-07T05:50:52;18.08;;;7.57;;
69381;SDS011;56560;50.692;12.844;2023-05-07T05:53:17;19.47;;;7.17;;
69381;SDS011;56560;50.692;12.844;2023-05-07T05:55:45;18.48;;;7.68;;
69381;SDS011;56560;50.692;12.844;2023-05-07T05:58:11;16.80;;;7.80;;
69381;SDS011;56560;50.692;12.844;2023-05-07T06:00:37;17.20;;;7.43;;
69381;SDS011;56560;50.692;12.844;2023-05-07T06:03:03;18.73;;;8.40;;
69381;SDS011;56560;50.692;12.844;2023-05-07T06:05:28;18.37;;;8.17;;
69381;SDS011;56560;50.692;12.844;2023-05-07T06:07:54;17.92;;;8.50;;
69381;SDS011;56560;50.692;12.844;2023-05-07T06:10:20;17.20;;;7.57;;
69381;SDS011;56560;50.692;12.844;2023-05-07T06:12:45;17.05;;;7.18;;
69381;SDS011;56560;50.692;12.844;2023-05-07T06:15:11;18.17;;;7.53;;
69381;SDS011;56560;50.692;12.844;2023-05-07T06:17:39;18.48;;;7.30;;
69381;SDS011;56560;50.692;12.844;2023-05-07T06:20:05;17.30;;;7.50;;
69381;SDS011;56560;50.692;12.844;2023-05-07T06:22:31;17.27;;;7.30;;
69381;SDS011;56560;50.692;12.844;2023-05-07T06:24:57;17.38;;;7.38;;
69381;SDS011;56560;50.692;12.844;2023-05-07T06:27:25;17.10;;;7.47;;
69381;SDS011;56560;50.692;12.844;2023-05-07T06:29:53;17.25;;;7.40;;
69381;SDS011;56560;50.692;12.844;2023-05-07T06:32:18;18.17;;;7.47;;
69381;SDS011;56560;50.692;12.844;2023-05-07T06:34:44;17.57;;;6.77;;
69381;SDS011;56560;50.692;12.844;2023-05-07T06:37:10;15.77;;;7.03;;
69381;SDS011;56560;50.692;12.844;2023-05-07T06:39:35;17.83;;;7.03;;
69381;SDS011;56560;50.692;12.844;2023-05-07T06:42:01;16.25;;;6.93;;
69381;SDS011;56560;50.692;12.844;2023-05-07T06:44:27;17.63;;;7.43;;
69381;SDS011;56560;50.692;12.844;2023-05-07T06:46:53;17.03;;;6.63;;
69381;SDS011;56560;50.692;12.844;2023-05-07T06:49:19;15.38;;;6.45;;
69381;SDS011;56560;50.692;12.844;2023-05-07T06:51:44;16.67;;;6.80;;
69381;SDS011;56560;50.692;12.844;2023-05-07T06:54:10;17.53;;;7.40;;
69381;SDS011;56560;50.692;12.844;2023-05-07T06:56:36;16.58;;;7.00;;
69381;SDS011;56560;50.692;12.844;2023-05-07T06:59:01;17.30;;;7.27;;
69381;SDS011;56560;50.692;12.844;2023-05-07T07:01:28;16.98;;;7.10;;
69381;SDS011;56560;50.692;12.844;2023-05-07T07:03:53;18.60;;;9.65;;
69381;SDS011;56560;50.692;12.844;2023-05-07T07:06:19;16.37;;;6.87;;
69381;SDS011;56560;50.692;12.844;2023-05-07T07:08:47;16.65;;;6.75;;
69381;SDS011;56560;50.692;12.844;2023-05-07T07:11:13;16.02;;;6.88;;
69381;SDS011;56560;50.692;12.844;2023-05-07T07:13:39;16.00;;;6.43;;
69381;SDS011;56560;50.692;12.844;2023-05-07T07:16:05;16.13;;;6.80;;
69381;SDS011;56560;50.692;12.844;2023-05-07T07:18:31;15.93;;;7.07;;
69381;SDS011;56560;50.692;12.844;2023-05-07T07:20:56;16.42;;;6.45;;
69381;SDS011;56560;50.692;12.844;2023-05-07T07:23:22;15.73;;;6.60;;
69381;SDS011;56560;50.692;12.844;2023-05-07T07:25:48;14.55;;;6.03;;
69381;SDS011;56560;50.692;12.844;2023-05-07T07:28:14;14.60;;;6.37;;
69381;SDS011;56560;50.692;12.844;2023-05-07T07:30:39;14.07;;;5.72;;
69381;SDS011;56560;50.692;12.844;2023-05-07T07:33:05;14.83;;;5.60;;
69381;SDS011;56560;50.692;12.844;2023-05-07T07:35:33;14.50;;;6.30;;
69381;SDS011;56560;50.692;12.844;2023-05-07T07:37:59;14.25;;;6.00;;
69381;SDS011;56560;50.692;12.844;2023-05-07T07:40:24;13.60;;;5.70;;
69381;SDS011;56560;50.692;12.844;2023-05-07T07:42:51;14.98;;;6.03;;
69381;SDS011;56560;50.692;12.844;2023-05-07T07:45:17;13.88;;;5.50;;
69381;SDS011;56560;50.692;12.844;2023-05-07T07:47:43;15.77;;;6.28;;
69381;SDS011;56560;50.692;12.844;2023-05-07T07:50:09;13.93;;;5.73;;
69381;SDS011;56560;50.692;12.844;2023-05-07T07:52:35;15.88;;;5.88;;
69381;SDS011;56560;50.692;12.844;2023-05-07T07:55:00;14.73;;;5.40;;
69381;SDS011;56560;50.692;12.844;2023-05-07T07:57:26;12.48;;;5.05;;
69381;SDS011;56560;50.692;12.844;2023-05-07T07:59:52;13.70;;;5.30;;
69381;SDS011;56560;50.692;12.844;2023-05-07T08:02:18;12.48;;;4.88;;
69381;SDS011;56560;50.692;12.844;2023-05-07T08:04:43;12.80;;;4.90;;
69381;SDS011;56560;50.692;12.844;2023-05-07T08:07:09;13.32;;;5.35;;
69381;SDS011;56560;50.692;12.844;2023-05-07T08:09:36;12.52;;;5.35;;
69381;SDS011;56560;50.692;12.844;2023-05-07T08:12:02;11.90;;;4.83;;
69381;SDS011;56560;50.692;12.844;2023-05-07T08:14:28;12.93;;;5.10;;
69381;SDS011;56560;50.692;12.844;2023-05-07T08:16:54;12.63;;;5.43;;
69381;SDS011;56560;50.692;12.844;2023-05-07T08:19:20;12.50;;;5.40;;
69381;SDS011;56560;50.692;12.844;2023-05-07T08:21:46;12.53;;;5.30;;
69381;SDS011;56560;50.692;12.844;2023-05-07T08:24:13;12.40;;;5.00;;
69381;SDS011;56560;50.692;12.844;2023-05-07T08:26:39;13.18;;;5.57;;
69381;SDS011;56560;50.692;12.844;2023-05-07T08:29:05;12.95;;;5.25;;
69381;SDS011;56560;50.692;12.844;2023-05-07T08:31:31;12.15;;;4.97;;
69381;SDS011;56560;50.692;12.844;2023-05-07T08:33:57;12.18;;;5.32;;
69381;SDS011;56560;50.692;12.844;2023-05-07T08:36:23;11.65;;;4.97;;
69381;SDS011;56560;50.692;12.844;2023-05-07T08:38:49;12.35;;;4.90;;
69381;SDS011;56560;50.692;12.844;2023-05-07T08:41:15;11.98;;;5.40;;
69381;SDS011;56560;50.692;12.844;2023-05-07T08:43:41;11.70;;;5.30;;
69381;SDS011;56560;50.692;12.844;2023-05-07T08:46:10;12.98;;;5.60;;
69381;SDS011;56560;50.692;12.844;2023-05-07T08:48:36;11.80;;;5.15;;
69381;SDS011;56560;50.692;12.844;2023-05-07T08:51:02;12.03;;;5.07;;
69381;SDS011;56560;50.692;12.844;2023-05-07T08:53:28;11.82;;;5.07;;
69381;SDS011;56560;50.692;12.844;2023-05-07T08:55:54;11.98;;;5.00;;
69381;SDS011;56560;50.692;12.844;2023-05-07T08:58:20;15.75;;;5.40;;
69381;SDS011;56560;50.692;12.844;2023-05-07T09:00:46;14.80;;;5.15;;
69381;SDS011;56560;50.692;12.844;2023-05-07T09:03:12;13.68;;;5.38;;
69381;SDS011;56560;50.692;12.844;2023-05-07T09:05:40;11.88;;;5.03;;
69381;SDS011;56560;50.692;12.844;2023-05-07T09:08:07;13.05;;;5.63;;
69381;SDS011;56560;50.692;12.844;2023-05-07T09:10:33;12.20;;;4.90;;
69381;SDS011;56560;50.692;12.844;2023-05-07T09:12:59;11.85;;;4.95;;
69381;SDS011;56560;50.692;12.844;2023-05-07T09:15:25;11.25;;;5.35;;
69381;SDS011;56560;50.692;12.844;2023-05-07T09:17:52;13.45;;;5.20;;
69381;SDS011;56560;50.692;12.844;2023-05-07T09:20:18;14.13;;;6.70;;
69381;SDS011;56560;50.692;12.844;2023-05-07T09:22:44;15.23;;;5.82;;
69381;SDS011;56560;50.692;12.844;2023-05-07T09:25:10;13.70;;;5.93;;
69381;SDS011;56560;50.692;12.844;2023-05-07T09:27:35;13.07;;;5.65;;
69381;SDS011;56560;50.692;12.844;2023-05-07T09:30:05;12.68;;;5.50;;
69381;SDS011;56560;50.692;12.844;2023-05-07T09:32:35;12.65;;;5.63;;
69381;SDS011;56560;50.692;12.844;2023-05-07T09:35:08;12.77;;;5.53;;
69381;SDS011;56560;50.692;12.844;2023-05-07T09:37:52;11.50;;;4.20;;
69381;SDS011;56560;50.692;12.844;2023-05-07T09:40:27;12.13;;;5.70;;
69381;SDS011;56560;50.692;12.844;2023-05-07T09:43:09;12.02;;;5.20;;
69381;SDS011;56560;50.692;12.844;2023-05-07T09:45:36;12.40;;;5.63;;
69381;SDS011;56560;50.692;12.844;2023-05-07T09:48:03;12.77;;;5.40;;
69381;SDS011;56560;50.692;12.844;2023-05-07T09:50:36;11.73;;;5.30;;
69381;SDS011;56560;50.692;12.844;2023-05-07T09:53:14;12.85;;;5.60;;
69381;SDS011;56560;50.692;12.844;2023-05-07T09:55:41;11.15;;;5.10;;
69381;SDS011;56560;50.692;12.844;2023-05-07T09:58:07;11.98;;;5.30;;
69381;SDS011;56560;50.692;12.844;2023-05-07T10:00:37;12.82;;;5.35;;
69381;SDS011;56560;50.692;12.844;2023-05-07T10:03:06;11.63;;;5.32;;
69381;SDS011;56560;50.692;12.844;2023-05-07T10:05:34;11.60;;;4.93;;
69381;SDS011;56560;50.692;12.844;2023-05-07T10:08:00;11.35;;;5.20;;
69381;SDS011;56560;50.692;12.844;2023-05-07T10:10:26;10.85;;;4.40;;
69381;SDS011;56560;50.692;12.844;2023-05-07T10:12:54;10.88;;;5.28;;
69381;SDS011;56560;50.692;12.844;2023-05-07T10:15:22;12.35;;;4.95;;
69381;SDS011;56560;50.692;12.844;2023-05-07T10:17:49;10.77;;;4.57;;
69381;SDS011;56560;50.692;12.844;2023-05-07T10:20:18;10.40;;;4.78;;
69381;SDS011;56560;50.692;12.844;2023-05-07T10:22:44;12.85;;;5.20;;
69381;SDS011;56560;50.692;12.844;2023-05-07T10:27:43;11.70;;;5.28;;
69381;SDS011;56560;50.692;12.844;2023-05-07T10:32:56;13.05;;;5.40;;
69381;SDS011;56560;50.692;12.844;2023-05-07T10:35:30;11.80;;;5.22;;
69381;SDS011;56560;50.692;12.844;2023-05-07T10:38:00;10.82;;;5.15;;
69381;SDS011;56560;50.692;12.844;2023-05-07T10:40:27;11.65;;;5.30;;
69381;SDS011;56560;50.692;12.844;2023-05-07T10:42:53;11.95;;;5.40;;
69381;SDS011;56560;50.692;12.844;2023-05-07T10:45:20;12.60;;;5.50;;
69381;SDS011;56560;50.692;12.844;2023-05-07T10:50:37;11.27;;;5.00;;
69381;SDS011;56560;50.692;12.844;2023-05-07T11:00:55;11.90;;;5.68;;
69381;SDS011;56560;50.692;12.844;2023-05-07T11:03:22;12.10;;;5.60;;
69381;SDS011;56560;50.692;12.844;2023-05-07T11:05:48;11.57;;;5.13;;
69381;SDS011;56560;50.692;12.844;2023-05-07T11:14:13;11.18;;;5.40;;
69381;SDS011;56560;50.692;12.844;2023-05-07T11:17:02;12.00;;;5.28;;
69381;SDS011;56560;50.692;12.844;2023-05-07T11:25:02;10.27;;;4.13;;
69381;SDS011;56560;50.692;12.844;2023-05-07T11:27:29;11.77;;;4.85;;
69381;SDS011;56560;50.692;12.844;2023-05-07T11:29:55;10.27;;;5.15;;
69381;SDS011;56560;50.692;12.844;2023-05-07T11:32:30;9.82;;;4.90;;
69381;SDS011;56560;50.692;12.844;2023-05-07T11:34:57;10.35;;;5.13;;
69381;SDS011;56560;50.692;12.844;2023-05-07T11:37:25;9.20;;;4.27;;
69381;SDS011;56560;50.692;12.844;2023-05-07T11:40:13;9.68;;;4.53;;
69381;SDS011;56560;50.692;12.844;2023-05-07T11:42:39;11.63;;;4.32;;
69381;SDS011;56560;50.692;12.844;2023-05-07T11:45:07;9.00;;;4.38;;
69381;SDS011;56560;50.692;12.844;2023-05-07T11:47:33;18.58;;;7.97;;
69381;SDS011;56560;50.692;12.844;2023-05-07T11:50:03;16.10;;;6.43;;
69381;SDS011;56560;50.692;12.844;2023-05-07T11:52:31;21.45;;;8.98;;
69381;SDS011;56560;50.692;12.844;2023-05-07T11:54:57;35.13;;;16.13;;
69381;SDS011;56560;50.692;12.844;2023-05-07T11:57:24;10.40;;;5.07;;
69381;SDS011;56560;50.692;12.844;2023-05-07T11:59:57;8.75;;;4.47;;
69381;SDS011;56560;50.692;12.844;2023-05-07T12:02:24;8.33;;;3.90;;
69381;SDS011;56560;50.692;12.844;2023-05-07T12:04:51;7.93;;;3.85;;
69381;SDS011;56560;50.692;12.844;2023-05-07T12:07:17;10.07;;;5.07;;
69381;SDS011;56560;50.692;12.844;2023-05-07T12:09:46;9.03;;;4.60;;
69381;SDS011;56560;50.692;12.844;2023-05-07T12:12:12;8.73;;;4.10;;
69381;SDS011;56560;50.692;12.844;2023-05-07T12:14:42;9.02;;;4.40;;
69381;SDS011;56560;50.692;12.844;2023-05-07T12:17:10;10.40;;;5.50;;
69381;SDS011;56560;50.692;12.844;2023-05-07T12:19:37;9.45;;;5.10;;
69381;SDS011;56560;50.692;12.844;2023-05-07T12:22:03;9.50;;;5.20;;
69381;SDS011;56560;50.692;12.844;2023-05-07T12:24:41;9.65;;;5.18;;
69381;SDS011;56560;50.692;12.844;2023-05-07T12:27:10;11.82;;;5.30;;
69381;SDS011;56560;50.692;12.844;2023-05-07T12:29:36;9.77;;;5.28;;
69381;SDS011;56560;50.692;12.844;2023-05-07T12:32:05;10.70;;;5.70;;
69381;SDS011;56560;50.692;12.844;2023-05-07T12:34:32;9.77;;;4.82;;
69381;SDS011;56560;50.692;12.844;2023-05-07T12:36:57;10.48;;;5.30;;
69381;SDS011;56560;50.692;12.844;2023-05-07T12:39:27;9.57;;;5.30;;
69381;SDS011;56560;50.692;12.844;2023-05-07T12:41:56;9.80;;;5.40;;
69381;SDS011;56560;50.692;12.844;2023-05-07T12:44:29;9.98;;;5.38;;
69381;SDS011;56560;50.692;12.844;2023-05-07T12:46:56;10.20;;;5.07;;
69381;SDS011;56560;50.692;12.844;2023-05-07T12:49:22;10.17;;;5.77;;
69381;SDS011;56560;50.692;12.844;2023-05-07T12:51:48;9.93;;;5.60;;
69381;SDS011;56560;50.692;12.844;2023-05-07T12:54:27;9.98;;;5.78;;
69381;SDS011;56560;50.692;12.844;2023-05-07T12:57:02;10.60;;;6.00;;
69381;SDS011;56560;50.692;12.844;2023-05-07T12:59:33;9.65;;;5.32;;
69381;SDS011;56560;50.692;12.844;2023-05-07T13:02:02;11.13;;;5.77;;
69381;SDS011;56560;50.692;12.844;2023-05-07T13:04:28;13.90;;;7.78;;
69381;SDS011;56560;50.692;12.844;2023-05-07T13:06:54;10.63;;;5.60;;
69381;SDS011;56560;50.692;12.844;2023-05-07T13:09:19;12.47;;;6.70;;
69381;SDS011;56560;50.692;12.844;2023-05-07T13:11:45;13.73;;;9.07;;
69381;SDS011;56560;50.692;12.844;2023-05-07T13:14:11;11.37;;;6.10;;
69381;SDS011;56560;50.692;12.844;2023-05-07T13:16:37;10.63;;;6.10;;
69381;SDS011;56560;50.692;12.844;2023-05-07T13:19:02;10.53;;;5.80;;
69381;SDS011;56560;50.692;12.844;2023-05-07T13:21:28;9.80;;;5.50;;
69381;SDS011;56560;50.692;12.844;2023-05-07T13:23:55;11.27;;;5.60;;
69381;SDS011;56560;50.692;12.844;2023-05-07T13:26:21;9.50;;;5.00;;
69381;SDS011;56560;50.692;12.844;2023-05-07T13:28:46;10.40;;;5.40;;
69381;SDS011;56560;50.692;12.844;2023-05-07T13:31:13;9.70;;;5.32;;
69381;SDS011;56560;50.692;12.844;2023-05-07T13:33:39;10.48;;;5.20;;
69381;SDS011;56560;50.692;12.844;2023-05-07T13:36:04;10.17;;;5.80;;
69381;SDS011;56560;50.692;12.844;2023-05-07T13:38:30;10.20;;;5.38;;
69381;SDS011;56560;50.692;12.844;2023-05-07T13:40:56;10.53;;;5.17;;
69381;SDS011;56560;50.692;12.844;2023-05-07T13:43:22;9.23;;;4.85;;
69381;SDS011;56560;50.692;12.844;2023-05-07T13:45:48;14.03;;;6.40;;
69381;SDS011;56560;50.692;12.844;2023-05-07T13:48:13;11.60;;;5.75;;
69381;SDS011;56560;50.692;12.844;2023-05-07T13:50:39;11.03;;;6.20;;
69381;SDS011;56560;50.692;12.844;2023-05-07T13:53:04;10.90;;;5.63;;
69381;SDS011;56560;50.692;12.844;2023-05-07T13:55:30;11.30;;;5.60;;
69381;SDS011;56560;50.692;12.844;2023-05-07T13:57:56;11.20;;;5.80;;
69381;SDS011;56560;50.692;12.844;2023-05-07T14:00:26;11.83;;;6.03;;
69381;SDS011;56560;50.692;12.844;2023-05-07T14:02:53;11.60;;;6.07;;
69381;SDS011;56560;50.692;12.844;2023-05-07T14:05:20;9.38;;;5.20;;
69381;SDS011;56560;50.692;12.844;2023-05-07T14:07:45;12.35;;;5.85;;
69381;SDS011;56560;50.692;12.844;2023-05-07T14:10:12;10.30;;;5.93;;
69381;SDS011;56560;50.692;12.844;2023-05-07T14:12:38;10.10;;;5.60;;
69381;SDS011;56560;50.692;12.844;2023-05-07T14:15:03;11.20;;;5.68;;
69381;SDS011;56560;50.692;12.844;2023-05-07T14:17:29;9.50;;;5.40;;
69381;SDS011;56560;50.692;12.844;2023-05-07T14:19:55;10.27;;;5.40;;
69381;SDS011;56560;50.692;12.844;2023-05-07T14:22:21;9.33;;;5.60;;
69381;SDS011;56560;50.692;12.844;2023-05-07T14:24:47;9.38;;;5.07;;
69381;SDS011;56560;50.692;12.844;2023-05-07T14:27:13;9.38;;;5.00;;
69381;SDS011;56560;50.692;12.844;2023-05-07T14:29:39;9.07;;;5.10;;
69381;SDS011;56560;50.692;12.844;2023-05-07T14:32:06;10.03;;;5.50;;
69381;SDS011;56560;50.692;12.844;2023-05-07T14:34:31;9.27;;;5.10;;
69381;SDS011;56560;50.692;12.844;2023-05-07T14:36:57;8.60;;;4.50;;
69381;SDS011;56560;50.692;12.844;2023-05-07T14:39:24;10.23;;;4.95;;
69381;SDS011;56560;50.692;12.844;2023-05-07T14:41:50;8.95;;;4.80;;
69381;SDS011;56560;50.692;12.844;2023-05-07T14:44:16;8.47;;;4.80;;
69381;SDS011;56560;50.692;12.844;2023-05-07T14:46:41;9.55;;;5.55;;